Time;durP1;ratioP1;P1;durP2;ratioP2;P2;SDS_P1;SDS_P2;PMS_P1;PMS_P2;Temp;Humidity;BMP_temperature;BMP_pressure;BME280_temperature;BME280_humidity;BME280_pressure;Samples;Min_cycle;Max_cycle;Signal;HPM_P1;HPM_P2
2022/10/09 00:01:06;;;;;;;6.30;4.40;;;10.50;81.30;;;;;;5016960;28;20030;-59
2022/10/09 00:03:33;;;;;;;5.75;4.13;;;10.50;81.40;;;;;;5015530;28;20044;-60
2022/10/09 00:05:59;;;;;;;6.97;4.20;;;10.50;81.50;;;;;;5014272;28;20497;-58
2022/10/09 00:08:24;;;;;;;7.25;4.65;;;10.40;81.60;;;;;;5013694;28;20044;-59
2022/10/09 00:10:50;;;;;;;9.63;4.40;;;10.50;81.90;;;;;;5012407;28;20049;-57
2022/10/09 00:13:16;;;;;;;7.00;5.03;;;10.40;82.00;;;;;;5014800;28;20030;-59
2022/10/09 00:15:43;;;;;;;8.95;5.13;;;10.50;82.20;;;;;;5014887;28;20490;-59
2022/10/09 00:18:10;;;;;;;9.80;4.50;;;10.50;82.40;;;;;;5014385;28;20045;-58
2022/10/09 00:20:41;;;;;;;5.88;4.30;;;10.50;82.40;;;;;;5012062;28;20037;-60
2022/10/09 00:23:07;;;;;;;7.07;4.88;;;10.50;82.40;;;;;;5012133;28;20049;-59
2022/10/09 00:25:34;;;;;;;7.40;4.18;;;10.50;82.10;;;;;;5015143;28;20401;-58
2022/10/09 00:28:01;;;;;;;6.35;4.82;;;10.50;82.20;;;;;;5014450;28;20045;-59
2022/10/09 00:30:27;;;;;;;6.32;4.60;;;10.50;82.20;;;;;;5013433;28;20421;-58
2022/10/09 00:32:53;;;;;;;8.50;4.88;;;10.50;82.40;;;;;;5013579;28;20103;-59
2022/10/09 00:35:19;;;;;;;7.95;5.03;;;10.50;82.50;;;;;;5011336;28;20401;-59
2022/10/09 00:37:45;;;;;;;8.23;5.03;;;10.50;82.70;;;;;;5011088;28;20034;-58
2022/10/09 00:40:11;;;;;;;8.95;4.95;;;10.50;82.70;;;;;;5013403;28;20041;-59
2022/10/09 00:42:36;;;;;;;7.20;4.80;;;10.50;82.70;;;;;;5013164;28;20536;-58
2022/10/09 00:45:03;;;;;;;8.70;5.30;;;10.40;82.70;;;;;;5011481;28;20076;-58
2022/10/09 00:47:34;;;;;;;9.38;5.20;;;10.40;82.90;;;;;;5015453;28;20497;-59
2022/10/09 00:50:17;;;;;;;8.38;5.05;;;10.50;83.00;;;;;;5013685;28;20041;-57
2022/10/09 00:52:43;;;;;;;7.85;4.75;;;10.50;83.00;;;;;;5015456;28;20087;-59
2022/10/09 00:55:11;;;;;;;9.40;5.13;;;10.50;83.00;;;;;;5015738;28;20125;-57
2022/10/09 00:57:39;;;;;;;9.05;5.00;;;10.50;83.00;;;;;;5019805;28;20048;-58
2022/10/09 01:00:08;;;;;;;9.38;4.70;;;10.50;83.40;;;;;;5020225;28;20072;-57
2022/10/09 01:02:34;;;;;;;7.97;4.20;;;10.50;82.70;;;;;;5025481;28;20590;-59
2022/10/09 01:04:59;;;;;;;7.93;4.15;;;10.50;82.30;;;;;;5017312;28;20042;-59
2022/10/09 01:07:34;;;;;;;9.57;4.43;;;10.50;82.00;;;;;;5018566;28;20141;-59
2022/10/09 01:10:03;;;;;;;6.72;4.30;;;10.40;81.80;;;;;;5019735;28;20042;-58
2022/10/09 01:12:40;;;;;;;8.77;4.50;;;10.40;81.80;;;;;;5014439;28;20528;-60
2022/10/09 01:15:09;;;;;;;7.13;4.55;;;10.40;81.90;;;;;;5017464;28;20378;-58
2022/10/09 01:17:38;;;;;;;6.10;4.25;;;10.30;82.00;;;;;;5015223;28;20061;-59
2022/10/09 01:20:45;;;;;;;8.63;4.50;;;10.30;81.80;;;;;;5014801;28;20456;-60
2022/10/09 01:23:19;;;;;;;5.80;4.20;;;10.30;81.70;;;;;;4988536;28;20456;-60
2022/10/09 01:26:08;;;;;;;7.03;4.50;;;10.30;81.60;;;;;;5016372;28;20040;-60
2022/10/09 01:28:35;;;;;;;12.20;4.47;;;10.20;82.00;;;;;;5018688;28;20042;-59
2022/10/09 01:31:03;;;;;;;6.72;4.65;;;10.20;82.70;;;;;;5017556;28;20116;-60
2022/10/09 01:33:31;;;;;;;8.02;4.20;;;10.20;82.10;;;;;;5019294;28;20041;-58
2022/10/09 01:35:58;;;;;;;7.70;4.82;;;10.20;82.30;;;;;;5016078;28;20429;-59
2022/10/09 01:38:26;;;;;;;10.05;4.72;;;10.20;82.30;;;;;;5015927;28;20034;-60
2022/10/09 01:40:52;;;;;;;7.70;4.70;;;10.10;82.20;;;;;;5016749;28;20033;-60
2022/10/09 01:43:18;;;;;;;7.93;4.55;;;10.10;82.20;;;;;;5014181;28;20111;-60
2022/10/09 01:45:45;;;;;;;6.72;4.53;;;10.20;82.40;;;;;;5017124;28;20382;-58
2022/10/09 01:48:28;;;;;;;7.47;4.13;;;10.10;82.40;;;;;;5017229;28;20030;-60
2022/10/09 01:51:00;;;;;;;4.65;4.03;;;10.10;82.70;;;;;;5013652;28;20053;-59
2022/10/09 01:53:27;;;;;;;5.07;4.38;;;10.10;82.60;;;;;;5016008;28;20040;-58
2022/10/09 01:56:00;;;;;;;7.68;4.43;;;10.10;82.60;;;;;;5016603;28;20045;-59
2022/10/09 01:58:47;;;;;;;5.82;4.28;;;10.10;83.00;;;;;;5018064;28;20048;-58
2022/10/09 02:01:28;;;;;;;8.70;4.80;;;10.10;83.10;;;;;;5014571;28;20094;-58
2022/10/09 02:03:56;;;;;;;7.32;4.60;;;10.10;83.20;;;;;;5015096;28;20038;-60
2022/10/09 02:06:22;;;;;;;6.30;4.43;;;10.10;83.00;;;;;;5015864;28;20176;-59
2022/10/09 02:08:50;;;;;;;7.53;4.72;;;10.10;82.80;;;;;;5012990;28;20050;-58
2022/10/09 02:11:16;;;;;;;8.00;4.70;;;10.10;82.90;;;;;;5013176;28;20120;-60
2022/10/09 02:13:44;;;;;;;11.80;4.88;;;10.10;82.90;;;;;;5016870;28;20113;-59
2022/10/09 02:16:31;;;;;;;5.15;4.30;;;10.10;82.80;;;;;;5014862;28;20034;-57
2022/10/09 02:19:12;;;;;;;8.68;4.63;;;10.10;82.70;;;;;;5015442;28;20037;-60
2022/10/09 02:21:45;;;;;;;8.75;5.45;;;10.10;82.70;;;;;;5015254;28;20087;-60
2022/10/09 02:24:15;;;;;;;9.57;5.43;;;10.10;82.70;;;;;;5015098;28;20500;-59
2022/10/09 02:26:41;;;;;;;8.13;5.53;;;10.10;82.90;;;;;;5013074;28;20132;-57
2022/10/09 02:29:07;;;;;;;7.80;5.22;;;10.10;82.90;;;;;;5014541;28;20580;-57
2022/10/09 02:31:36;;;;;;;10.25;5.45;;;10.10;83.00;;;;;;5015828;28;20559;-57
2022/10/09 02:34:05;;;;;;;7.55;5.15;;;10.10;82.90;;;;;;5016331;28;20040;-58
2022/10/09 02:36:31;;;;;;;9.20;5.60;;;10.10;83.00;;;;;;5015648;28;20037;-58
2022/10/09 02:38:57;;;;;;;8.10;5.35;;;10.10;83.00;;;;;;5013883;28;20045;-58
2022/10/09 02:41:24;;;;;;;9.35;5.60;;;10.10;83.00;;;;;;5015557;28;20041;-58
2022/10/09 02:43:50;;;;;;;8.15;5.47;;;10.10;83.10;;;;;;5014571;28;20283;-59
2022/10/09 02:46:16;;;;;;;10.45;6.20;;;10.10;83.10;;;;;;5015096;28;20042;-58
2022/10/09 02:48:41;;;;;;;8.50;5.65;;;10.10;83.20;;;;;;5016061;28;20413;-59
2022/10/09 02:51:07;;;;;;;8.57;5.80;;;10.10;83.10;;;;;;5015563;28;20599;-56
2022/10/09 02:53:33;;;;;;;8.98;5.60;;;10.10;83.20;;;;;;5015755;28;20037;-58
2022/10/09 02:55:59;;;;;;;10.35;6.55;;;10.10;83.30;;;;;;5013663;28;20037;-59
2022/10/09 02:58:24;;;;;;;7.43;6.03;;;10.00;83.20;;;;;;5016378;28;20087;-60
2022/10/09 03:00:52;;;;;;;8.85;6.00;;;10.10;83.30;;;;;;5014123;28;20030;-57
2022/10/09 03:03:18;;;;;;;7.70;5.60;;;10.00;83.30;;;;;;5014538;28;20568;-56
2022/10/09 03:05:44;;;;;;;7.85;6.05;;;10.00;83.30;;;;;;5014150;28;20525;-58
2022/10/09 03:08:10;;;;;;;11.13;6.10;;;10.00;83.30;;;;;;5014160;28;20042;-59
2022/10/09 03:10:39;;;;;;;8.52;5.93;;;10.00;83.30;;;;;;5015508;28;20038;-59
2022/10/09 03:13:06;;;;;;;7.53;6.40;;;10.00;83.40;;;;;;5015919;28;20575;-58
2022/10/09 03:15:36;;;;;;;7.22;6.28;;;10.00;83.30;;;;;;5013495;28;20321;-57
2022/10/09 03:18:02;;;;;;;9.93;7.35;;;10.00;83.40;;;;;;5013613;28;20060;-58
2022/10/09 03:20:29;;;;;;;9.13;7.13;;;10.00;83.40;;;;;;5015007;28;20069;-59
2022/10/09 03:22:55;;;;;;;10.15;6.85;;;10.00;83.50;;;;;;5013822;28;20070;-58
2022/10/09 03:25:21;;;;;;;8.40;6.75;;;10.00;83.50;;;;;;5014802;28;20040;-58
2022/10/09 03:27:47;;;;;;;9.35;6.30;;;10.00;83.60;;;;;;5013520;28;20037;-58
2022/10/09 03:30:13;;;;;;;7.93;6.35;;;10.00;83.60;;;;;;5016473;28;20037;-59
2022/10/09 03:32:38;;;;;;;6.43;5.72;;;9.90;83.70;;;;;;5014819;28;20496;-58
2022/10/09 03:35:04;;;;;;;8.82;6.43;;;9.80;83.80;;;;;;5013622;28;20037;-59
2022/10/09 03:37:30;;;;;;;11.35;7.00;;;9.90;83.80;;;;;;5014028;28;20084;-60
2022/10/09 03:39:57;;;;;;;10.02;6.38;;;9.90;84.00;;;;;;5015302;28;20121;-60
2022/10/09 03:42:22;;;;;;;9.40;7.15;;;9.90;84.80;;;;;;5011418;28;20045;-58
2022/10/09 03:44:48;;;;;;;10.77;6.63;;;9.90;84.00;;;;;;5015491;28;20042;-59
2022/10/09 03:47:13;;;;;;;10.55;7.13;;;9.90;84.00;;;;;;5012476;28;20046;-55
2022/10/09 03:49:39;;;;;;;9.50;6.53;;;9.90;84.10;;;;;;5016255;28;20111;-59
2022/10/09 03:52:04;;;;;;;9.68;6.72;;;9.90;84.10;;;;;;5014019;28;20433;-57
2022/10/09 03:54:30;;;;;;;13.18;7.45;;;9.90;84.30;;;;;;5014893;28;20033;-58
2022/10/09 03:56:56;;;;;;;18.55;7.32;;;9.90;84.40;;;;;;5015246;28;20083;-60
2022/10/09 03:59:21;;;;;;;11.82;7.28;;;9.80;84.40;;;;;;5014893;28;20049;-59
2022/10/09 04:01:47;;;;;;;24.20;8.38;;;9.80;84.50;;;;;;5014849;28;20497;-59
2022/10/09 04:04:12;;;;;;;14.98;8.50;;;9.80;84.60;;;;;;5012830;28;20088;-57
2022/10/09 04:06:38;;;;;;;35.50;9.57;;;9.80;84.70;;;;;;5013101;28;20033;-59
2022/10/09 04:09:04;;;;;;;11.15;7.95;;;9.80;84.80;;;;;;5012828;28;20038;-59
2022/10/09 04:11:29;;;;;;;42.08;7.25;;;9.80;84.80;;;;;;5012653;28;20034;-58
2022/10/09 04:13:55;;;;;;;31.08;7.15;;;9.80;85.00;;;;;;5014295;28;20033;-55
2022/10/09 04:16:20;;;;;;;42.97;6.75;;;9.80;85.00;;;;;;5014810;28;20030;-59
2022/10/09 04:18:46;;;;;;;31.27;6.97;;;9.70;85.10;;;;;;5011840;28;20061;-58
2022/10/09 04:21:12;;;;;;;20.55;6.60;;;9.80;85.10;;;;;;5013997;28;20029;-57
2022/10/09 04:23:38;;;;;;;70.45;7.60;;;9.80;85.10;;;;;;5013448;28;20111;-58
2022/10/09 04:26:04;;;;;;;56.20;6.75;;;9.80;85.20;;;;;;5013640;28;20398;-60
2022/10/09 04:28:30;;;;;;;69.43;7.05;;;9.80;85.10;;;;;;5014560;28;20079;-58
2022/10/09 04:30:57;;;;;;;8.20;6.20;;;9.70;85.00;;;;;;5017074;28;20123;-58
2022/10/09 04:33:24;;;;;;;44.47;6.68;;;9.70;85.20;;;;;;5017635;28;20740;-57
2022/10/09 04:35:51;;;;;;;33.40;7.50;;;9.70;85.20;;;;;;5017648;28;20050;-59
2022/10/09 04:38:18;;;;;;;73.85;7.93;;;9.70;85.30;;;;;;5017673;28;20037;-60
2022/10/09 04:40:44;;;;;;;39.25;6.70;;;9.60;85.50;;;;;;5017890;28;20916;-60
2022/10/09 04:43:10;;;;;;;31.95;7.07;;;9.60;85.60;;;;;;5017044;28;20095;-60
2022/10/09 04:45:39;;;;;;;14.43;7.03;;;9.50;85.80;;;;;;5018117;28;20041;-60
2022/10/09 04:48:05;;;;;;;9.73;6.88;;;9.50;86.00;;;;;;5019103;28;20038;-60
2022/10/09 04:50:30;;;;;;;9.25;7.22;;;9.50;86.00;;;;;;5017637;28;20543;-59
2022/10/09 04:52:56;;;;;;;90.47;8.38;;;9.50;86.20;;;;;;5017556;28;20042;-58
2022/10/09 04:55:22;;;;;;;27.88;7.32;;;9.50;86.30;;;;;;5015599;28;20032;-58
2022/10/09 04:57:47;;;;;;;17.58;7.60;;;9.50;86.20;;;;;;5018111;28;20061;-58
2022/10/09 05:00:13;;;;;;;107.63;8.35;;;9.50;86.20;;;;;;5011685;28;20922;-59
2022/10/09 05:02:39;;;;;;;23.00;7.28;;;9.50;86.30;;;;;;5017090;28;20096;-59
2022/10/09 05:05:05;;;;;;;35.85;7.53;;;9.50;86.30;;;;;;5017307;28;20075;-58
2022/10/09 05:07:31;;;;;;;51.75;8.30;;;9.50;86.40;;;;;;5016747;28;20041;-59
2022/10/09 05:09:56;;;;;;;36.83;8.90;;;9.50;86.40;;;;;;5018065;28;20505;-58
2022/10/09 05:12:22;;;;;;;31.35;8.30;;;9.40;86.50;;;;;;5016735;28;20044;-58
2022/10/09 05:14:47;;;;;;;66.00;7.85;;;9.40;86.70;;;;;;5018332;28;20083;-60
2022/10/09 05:17:13;;;;;;;26.23;8.35;;;9.50;86.70;;;;;;5015942;28;20048;-58
2022/10/09 05:19:39;;;;;;;66.93;8.75;;;9.50;86.70;;;;;;5018086;28;20033;-58
2022/10/09 05:22:04;;;;;;;16.63;7.53;;;9.50;86.90;;;;;;5015628;28;20046;-59
2022/10/09 05:24:30;;;;;;;49.05;7.70;;;9.50;86.90;;;;;;5017298;28;20044;-58
2022/10/09 05:26:56;;;;;;;16.23;8.05;;;9.40;86.90;;;;;;5016349;28;20045;-59
2022/10/09 05:29:22;;;;;;;9.98;8.15;;;9.50;87.00;;;;;;5015488;28;20037;-59
2022/10/09 05:31:47;;;;;;;86.82;9.02;;;9.50;87.10;;;;;;5016608;28;20030;-59
2022/10/09 05:34:13;;;;;;;73.75;9.02;;;9.50;87.10;;;;;;5017291;28;20042;-59
2022/10/09 05:36:39;;;;;;;11.30;7.88;;;9.40;86.90;;;;;;5017402;28;20068;-59
2022/10/09 05:39:04;;;;;;;43.53;8.43;;;9.40;87.00;;;;;;5017711;28;20396;-57
2022/10/09 05:41:30;;;;;;;110.28;9.15;;;9.50;87.20;;;;;;5015405;28;20394;-56
2022/10/09 05:44:00;;;;;;;28.83;8.55;;;9.40;87.30;;;;;;5016892;28;20120;-58
2022/10/09 05:46:28;;;;;;;12.60;8.20;;;9.50;87.30;;;;;;5015725;28;20142;-58
2022/10/09 05:48:56;;;;;;;32.88;8.63;;;9.50;87.30;;;;;;5018614;28;20037;-59
2022/10/09 05:51:25;;;;;;;24.77;8.27;;;9.50;87.40;;;;;;5015497;28;20055;-60
2022/10/09 05:53:51;;;;;;;70.45;8.55;;;9.50;87.40;;;;;;5015298;28;20044;-60
2022/10/09 05:56:22;;;;;;;47.33;8.75;;;9.50;87.40;;;;;;5017294;28;20038;-59
2022/10/09 05:58:50;;;;;;;26.70;8.25;;;9.50;87.40;;;;;;5015558;28;20064;-59
2022/10/09 06:01:17;;;;;;;68.13;9.32;;;9.50;87.40;;;;;;5015965;28;22940;-57
2022/10/09 06:03:46;;;;;;;10.95;7.82;;;9.50;87.40;;;;;;5015956;28;20116;-57
2022/10/09 06:06:12;;;;;;;16.40;8.02;;;9.50;87.50;;;;;;5016687;28;20037;-58
2022/10/09 06:08:37;;;;;;;11.35;8.10;;;9.50;87.60;;;;;;5015780;28;20033;-59
2022/10/09 06:11:16;;;;;;;10.60;7.63;;;9.50;87.60;;;;;;5015848;28;20279;-57
2022/10/09 06:13:42;;;;;;;12.73;8.02;;;9.50;87.80;;;;;;5017279;28;20045;-59
2022/10/09 06:16:12;;;;;;;14.40;8.20;;;9.50;87.60;;;;;;5015584;28;20088;-59
2022/10/09 06:18:39;;;;;;;11.23;7.78;;;9.50;87.60;;;;;;5015821;28;20099;-59
2022/10/09 06:21:06;;;;;;;10.75;8.38;;;9.60;87.60;;;;;;5016307;28;20037;-60
2022/10/09 06:23:31;;;;;;;9.57;7.65;;;9.60;87.60;;;;;;5014530;28;20042;-58
2022/10/09 06:26:03;;;;;;;11.85;7.95;;;9.60;87.60;;;;;;5015691;28;20099;-59
2022/10/09 06:28:30;;;;;;;13.05;7.32;;;9.60;87.60;;;;;;5013574;28;20045;-60
2022/10/09 06:31:03;;;;;;;11.23;8.30;;;9.60;87.40;;;;;;5017378;28;20046;-59
2022/10/09 06:33:31;;;;;;;11.27;7.50;;;9.70;88.50;;;;;;5016743;28;20041;-59
2022/10/09 06:36:03;;;;;;;11.25;7.65;;;9.70;87.40;;;;;;5016629;28;20045;-59
2022/10/09 06:38:29;;;;;;;10.65;7.68;;;9.60;87.40;;;;;;5013122;28;20634;-58
2022/10/09 06:41:00;;;;;;;10.75;7.68;;;9.60;87.40;;;;;;5016995;28;20049;-57
2022/10/09 06:43:25;;;;;;;10.55;7.03;;;9.60;87.40;;;;;;5015154;28;20139;-58
2022/10/09 06:45:51;;;;;;;14.00;7.55;;;9.60;87.40;;;;;;5016962;28;20545;-58
2022/10/09 06:48:16;;;;;;;11.93;7.60;;;9.60;87.40;;;;;;5014673;28;20033;-59
2022/10/09 06:50:42;;;;;;;12.13;7.43;;;9.60;87.50;;;;;;5014525;28;20044;-59
2022/10/09 06:53:08;;;;;;;8.88;7.38;;;9.60;87.60;;;;;;5013497;28;20041;-58
2022/10/09 06:55:33;;;;;;;8.77;7.15;;;9.60;87.70;;;;;;5015619;28;20034;-59
2022/10/09 06:57:59;;;;;;;9.88;7.30;;;9.60;87.80;;;;;;5014818;28;20715;-58
2022/10/09 07:00:25;;;;;;;9.20;7.70;;;9.70;87.90;;;;;;5011831;28;20071;-57
2022/10/09 07:02:50;;;;;;;27.95;8.02;;;9.70;88.00;;;;;;4997499;28;20046;-58
2022/10/09 07:05:16;;;;;;;29.00;7.78;;;9.70;88.10;;;;;;5016070;28;20120;-56
2022/10/09 07:07:42;;;;;;;10.77;7.80;;;9.70;88.10;;;;;;5014643;28;20485;-55
2022/10/09 07:10:08;;;;;;;11.35;7.75;;;9.70;88.10;;;;;;5016206;28;20101;-59
2022/10/09 07:12:37;;;;;;;12.05;7.38;;;9.80;88.30;;;;;;5014925;28;20236;-60
2022/10/09 07:15:05;;;;;;;10.88;7.28;;;9.80;88.50;;;;;;5017370;28;20361;-59
2022/10/09 07:17:31;;;;;;;9.93;7.70;;;9.80;88.50;;;;;;5017136;28;20120;-58
2022/10/09 07:19:56;;;;;;;11.73;7.47;;;9.80;88.50;;;;;;5017075;28;20494;-58
2022/10/09 07:22:22;;;;;;;10.15;7.30;;;9.90;88.50;;;;;;5016171;28;20045;-58
2022/10/09 07:24:49;;;;;;;10.93;7.55;;;9.90;88.50;;;;;;5015744;28;20096;-57
2022/10/09 07:27:15;;;;;;;11.82;7.72;;;10.00;88.50;;;;;;5016863;28;20117;-59
2022/10/09 07:29:41;;;;;;;10.13;7.88;;;10.00;88.50;;;;;;5012434;28;20128;-60
2022/10/09 07:32:06;;;;;;;10.32;7.50;;;10.00;88.30;;;;;;5006313;28;20060;-59
2022/10/09 07:34:32;;;;;;;11.07;7.53;;;10.00;88.50;;;;;;5010087;28;20034;-60
2022/10/09 07:36:57;;;;;;;9.82;7.25;;;10.00;88.30;;;;;;5010729;28;20040;-59
2022/10/09 07:39:23;;;;;;;10.75;7.63;;;10.10;88.50;;;;;;5009708;28;20550;-60
2022/10/09 07:41:50;;;;;;;11.32;7.22;;;10.20;88.70;;;;;;5014886;28;20030;-58
2022/10/09 07:44:16;;;;;;;10.45;7.07;;;10.10;88.40;;;;;;5014712;28;20056;-59
2022/10/09 07:46:42;;;;;;;9.23;6.47;;;10.10;88.40;;;;;;5013757;28;20412;-58
2022/10/09 07:49:08;;;;;;;7.88;6.50;;;10.20;88.40;;;;;;5015129;28;20049;-59
2022/10/09 07:51:33;;;;;;;7.43;6.43;;;10.20;88.30;;;;;;5011388;28;20041;-58
2022/10/09 07:54:00;;;;;;;9.10;6.38;;;10.30;88.10;;;;;;5012984;28;20056;-60
2022/10/09 07:56:34;;;;;;;10.20;7.13;;;10.30;88.10;;;;;;5014254;28;20172;-58
2022/10/09 07:59:03;;;;;;;12.95;6.20;;;10.30;88.10;;;;;;5012035;28;20029;-58
2022/10/09 08:01:30;;;;;;;9.55;6.63;;;10.30;87.90;;;;;;5011145;28;20064;-58
2022/10/09 08:03:57;;;;;;;9.55;6.38;;;10.30;87.80;;;;;;5014141;28;20037;-59
2022/10/09 08:06:23;;;;;;;8.05;6.45;;;10.30;88.00;;;;;;5014748;28;20057;-59
2022/10/09 08:08:50;;;;;;;9.50;6.45;;;10.40;88.10;;;;;;5014687;28;20037;-60
2022/10/09 08:11:16;;;;;;;9.77;7.15;;;10.40;88.10;;;;;;5008202;28;20040;-56
2022/10/09 08:13:43;;;;;;;8.07;6.35;;;10.40;88.10;;;;;;5011566;28;20059;-58
2022/10/09 08:16:09;;;;;;;9.32;6.57;;;10.40;88.00;;;;;;5012911;28;20036;-59
2022/10/09 08:18:35;;;;;;;12.82;7.60;;;10.50;88.20;;;;;;5014062;28;20033;-60
2022/10/09 08:21:04;;;;;;;8.27;6.70;;;10.50;88.10;;;;;;5013071;28;20053;-60
2022/10/09 08:23:30;;;;;;;8.45;6.22;;;10.60;88.10;;;;;;5013993;28;20497;-60
2022/10/09 08:25:55;;;;;;;7.57;5.97;;;10.60;88.10;;;;;;5012388;28;20072;-59
2022/10/09 08:28:22;;;;;;;9.60;6.40;;;10.60;88.10;;;;;;5014904;28;20116;-59
2022/10/09 08:30:47;;;;;;;8.80;6.13;;;10.60;88.10;;;;;;5011562;28;20052;-58
2022/10/09 08:33:13;;;;;;;10.20;6.63;;;10.70;88.20;;;;;;5012155;28;20413;-59
2022/10/09 08:35:39;;;;;;;7.97;6.90;;;10.80;88.10;;;;;;5012012;28;20576;-59
2022/10/09 08:38:06;;;;;;;10.80;6.45;;;10.80;88.20;;;;;;5015156;28;20148;-60
2022/10/09 08:41:01;;;;;;;8.88;6.15;;;10.80;88.30;;;;;;5012551;28;20045;-59
2022/10/09 08:43:48;;;;;;;7.57;6.32;;;10.90;88.60;;;;;;5014037;28;20033;-59
2022/10/09 08:46:30;;;;;;;7.85;6.35;;;11.00;88.60;;;;;;5013906;28;20026;-61
2022/10/09 08:48:58;;;;;;;16.17;8.18;;;11.00;88.30;;;;;;5014974;28;20034;-59
2022/10/09 08:51:33;;;;;;;14.85;7.32;;;11.00;88.00;;;;;;5013578;28;20132;-59
2022/10/09 08:54:02;;;;;;;;;;;11.10;88.10;;;;;;5013452;28;20068;-59
2022/10/09 08:56:29;;;;;;;8.48;6.75;;;11.20;88.50;;;;;;5013744;28;19923;-61
2022/10/09 08:58:54;;;;;;;8.38;6.25;;;11.20;88.00;;;;;;5015502;28;20449;-60
2022/10/09 09:01:24;;;;;;;9.38;6.28;;;11.30;88.10;;;;;;5012842;28;20032;-59
2022/10/09 09:03:56;;;;;;;9.48;6.18;;;11.30;88.10;;;;;;5012687;28;21434;-60
2022/10/09 09:06:21;;;;;;;7.35;5.75;;;11.40;87.90;;;;;;5010558;28;20072;-60
2022/10/09 09:09:00;;;;;;;9.25;6.32;;;11.40;87.70;;;;;;5010180;28;20517;-60
2022/10/09 09:11:40;;;;;;;8.40;5.30;;;11.50;87.80;;;;;;5008090;28;20109;-61
2022/10/09 09:14:27;;;;;;;11.73;5.63;;;11.60;87.60;;;;;;5013197;28;20414;-59
2022/10/09 09:17:02;;;;;;;10.82;5.80;;;11.60;87.40;;;;;;5014400;28;20616;-61
2022/10/09 09:19:46;;;;;;;7.78;5.57;;;11.60;87.30;;;;;;5016586;28;20064;-60
2022/10/09 09:22:14;;;;;;;10.38;5.53;;;11.70;87.30;;;;;;5014850;28;20455;-60
2022/10/09 09:24:48;;;;;;;7.38;5.60;;;11.70;87.20;;;;;;5020211;28;20633;-58
2022/10/09 09:27:18;;;;;;;7.57;6.10;;;11.80;87.20;;;;;;5018664;28;20428;-61
2022/10/09 09:30:08;;;;;;;8.10;5.60;;;11.80;87.10;;;;;;5020659;28;20038;-60
2022/10/09 09:32:35;;;;;;;7.93;5.43;;;11.90;86.90;;;;;;5019864;28;20069;-60
2022/10/09 09:35:26;;;;;;;6.97;5.45;;;11.90;86.90;;;;;;5020011;28;20520;-61
2022/10/09 09:37:52;;;;;;;7.80;5.50;;;12.00;87.10;;;;;;5017765;28;20065;-60
2022/10/09 09:40:19;;;;;;;8.55;5.68;;;12.00;86.70;;;;;;5020870;28;20026;-58
2022/10/09 09:42:45;;;;;;;9.35;5.80;;;12.10;86.60;;;;;;5017912;28;20041;-61
2022/10/09 09:45:18;;;;;;;7.53;5.93;;;12.10;86.60;;;;;;5021829;28;20049;-60
2022/10/09 09:48:02;;;;;;;7.97;5.65;;;12.20;86.70;;;;;;5020289;28;20113;-61
2022/10/09 09:50:31;;;;;;;7.38;4.97;;;12.20;86.50;;;;;;5019045;28;20045;-61
2022/10/09 09:53:01;;;;;;;8.85;5.28;;;12.30;86.60;;;;;;5020043;28;20030;-61
2022/10/09 09:55:29;;;;;;;7.75;5.00;;;12.40;86.70;;;;;;5018317;28;20034;-60
2022/10/09 09:58:04;;;;;;;7.45;4.85;;;12.40;86.60;;;;;;5018116;28;20080;-59
2022/10/09 10:00:29;;;;;;;6.55;4.50;;;12.50;86.30;;;;;;5015376;28;20282;-59
2022/10/09 10:03:12;;;;;;;7.30;4.40;;;12.60;86.40;;;;;;5021384;28;20143;-59
2022/10/09 10:05:40;;;;;;;8.77;4.70;;;12.70;86.10;;;;;;5018639;28;20266;-59
2022/10/09 10:08:33;;;;;;;5.97;4.25;;;12.70;86.10;;;;;;5017753;28;20038;-60
2022/10/09 10:11:01;;;;;;;4.93;3.92;;;12.80;86.10;;;;;;5011413;28;20509;-60
2022/10/09 10:13:37;;;;;;;5.63;3.75;;;12.90;86.00;;;;;;5018421;28;20618;-61
2022/10/09 10:16:05;;;;;;;7.93;3.65;;;13.00;85.80;;;;;;5018934;28;20570;-60
2022/10/09 10:18:38;;;;;;;4.43;3.47;;;13.10;85.70;;;;;;5020052;28;20080;-61
2022/10/09 10:21:13;;;;;;;4.78;3.35;;;13.10;85.20;;;;;;5017802;28;20045;-59
2022/10/09 10:23:41;;;;;;;5.43;3.10;;;13.20;84.90;;;;;;5019902;28;20041;-60
2022/10/09 10:26:38;;;;;;;4.28;2.83;;;13.40;85.00;;;;;;5019254;28;20064;-61
2022/10/09 10:29:36;;;;;;;5.35;2.78;;;13.40;84.30;;;;;;5008913;28;20037;-61
2022/10/09 10:32:20;;;;;;;3.67;2.30;;;13.60;84.00;;;;;;5019314;28;20460;-63
2022/10/09 10:35:16;;;;;;;5.88;2.80;;;13.60;82.90;;;;;;5016304;28;20033;-61
2022/10/09 10:38:06;;;;;;;3.28;2.50;;;13.70;82.90;;;;;;5019025;28;20030;-60
2022/10/09 10:40:40;;;;;;;3.38;2.10;;;13.80;82.70;;;;;;5018832;28;20608;-61
2022/10/09 10:43:09;;;;;;;3.95;2.40;;;13.90;82.80;;;;;;5020519;28;20046;-60
2022/10/09 10:45:38;;;;;;;4.18;2.35;;;14.00;82.30;;;;;;5018303;28;20409;-61
2022/10/09 10:48:09;;;;;;;6.03;2.65;;;14.10;81.50;;;;;;5014472;28;20416;-61
2022/10/09 10:50:41;;;;;;;3.70;2.20;;;14.20;81.20;;;;;;5018466;28;20513;-61
2022/10/09 10:53:25;;;;;;;2.75;2.22;;;14.30;81.20;;;;;;5017707;28;20493;-59
2022/10/09 10:55:57;;;;;;;2.55;1.90;;;14.30;80.60;;;;;;5018309;28;20037;-60
2022/10/09 10:58:50;;;;;;;3.45;1.98;;;14.40;80.30;;;;;;5018675;28;20038;-60
2022/10/09 11:01:28;;;;;;;3.72;1.95;;;14.50;79.60;;;;;;5019195;28;20045;-61
2022/10/09 11:04:12;;;;;;;3.33;1.90;;;14.60;79.40;;;;;;5019375;28;20055;-60
2022/10/09 11:06:55;;;;;;;2.60;1.92;;;14.60;79.30;;;;;;5017124;28;20036;-60
2022/10/09 11:09:35;;;;;;;2.80;2.20;;;14.70;78.90;;;;;;5017843;28;20044;-60
2022/10/09 11:12:28;;;;;;;3.30;1.90;;;14.80;78.40;;;;;;5017909;28;20460;-61
2022/10/09 11:15:07;;;;;;;5.63;2.00;;;14.80;78.30;;;;;;5014722;28;20056;-59
2022/10/09 11:17:46;;;;;;;3.38;1.75;;;14.90;79.10;;;;;;5014969;28;20062;-60
2022/10/09 11:20:42;;;;;;;2.28;2.03;;;14.90;78.60;;;;;;5018230;28;20041;-60
2022/10/09 11:23:32;;;;;;;3.90;1.90;;;14.90;77.90;;;;;;5018036;28;20592;-60
2022/10/09 11:26:24;;;;;;;3.58;2.17;;;15.10;77.70;;;;;;5017324;28;20033;-61
2022/10/09 11:29:20;;;;;;;5.40;2.00;;;15.10;77.20;;;;;;5017381;28;20100;-61
2022/10/09 11:31:54;;;;;;;2.92;1.75;;;15.20;77.20;;;;;;5014815;28;20061;-61
2022/10/09 11:34:32;;;;;;;3.47;1.75;;;15.20;77.70;;;;;;5018847;28;20523;-62
2022/10/09 11:36:59;;;;;;;4.70;2.00;;;15.20;77.60;;;;;;5016891;28;20033;-61
2022/10/09 11:39:30;;;;;;;3.67;1.80;;;15.30;77.70;;;;;;5015128;28;20042;-61
2022/10/09 11:41:56;;;;;;;3.03;1.80;;;15.40;77.40;;;;;;5016503;28;20042;-60
2022/10/09 11:44:40;;;;;;;3.05;1.75;;;15.40;77.10;;;;;;5017537;28;20056;-60
2022/10/09 11:47:14;;;;;;;2.53;1.73;;;15.50;76.20;;;;;;5015907;28;20079;-61
2022/10/09 11:49:50;;;;;;;3.07;1.60;;;15.50;76.50;;;;;;5016794;28;20519;-60
2022/10/09 11:52:38;;;;;;;3.15;1.67;;;15.60;77.00;;;;;;5016903;28;20385;-61
2022/10/09 11:55:29;;;;;;;3.33;1.90;;;15.70;76.50;;;;;;5016478;28;20042;-61
2022/10/09 11:57:54;;;;;;;3.35;1.80;;;15.70;76.00;;;;;;5014093;28;20059;-61
2022/10/09 12:00:32;;;;;;;2.83;1.50;;;15.80;76.80;;;;;;5015836;28;20434;-61
2022/10/09 12:03:02;;;;;;;1.50;1.40;;;15.90;75.80;;;;;;5016531;28;20064;-61
2022/10/09 12:05:37;;;;;;;2.75;1.90;;;15.90;76.30;;;;;;5016199;28;20034;-61
2022/10/09 12:08:24;;;;;;;2.42;1.65;;;16.00;75.80;;;;;;5015708;28;20433;-61
2022/10/09 12:10:53;;;;;;;2.50;1.73;;;16.10;75.40;;;;;;5012214;28;20582;-62
2022/10/09 12:13:50;;;;;;;3.33;1.80;;;16.20;75.30;;;;;;5017079;28;20281;-61
2022/10/09 12:16:40;;;;;;;2.75;1.75;;;16.20;73.90;;;;;;5016606;28;20041;-61
2022/10/09 12:19:21;;;;;;;3.08;1.75;;;16.30;74.20;;;;;;5017006;28;20052;-61
2022/10/09 12:22:11;;;;;;;3.17;1.75;;;16.30;74.20;;;;;;5016617;28;20040;-62
2022/10/09 12:25:01;;;;;;;3.78;2.03;;;16.40;73.50;;;;;;5004979;28;20396;-62
2022/10/09 12:27:32;;;;;;;4.28;2.00;;;16.40;73.30;;;;;;5017816;28;20041;-60
2022/10/09 12:30:13;;;;;;;2.65;1.70;;;16.40;74.00;;;;;;5016074;28;20516;-61
2022/10/09 12:33:03;;;;;;;2.50;1.45;;;16.50;73.80;;;;;;5009870;28;20119;-61
2022/10/09 12:35:35;;;;;;;3.13;1.80;;;16.50;73.20;;;;;;5013608;28;20034;-62
2022/10/09 12:38:01;;;;;;;3.83;2.15;;;16.50;73.00;;;;;;5016967;28;20496;-62
2022/10/09 12:40:32;;;;;;;5.95;1.98;;;16.60;73.50;;;;;;5016240;28;20493;-62
2022/10/09 12:43:04;;;;;;;4.55;1.77;;;16.60;73.20;;;;;;5012453;28;20041;-62
2022/10/09 12:45:31;;;;;;;3.20;1.83;;;16.60;73.60;;;;;;5017454;28;20601;-62
2022/10/09 12:47:59;;;;;;;3.70;1.80;;;16.60;73.60;;;;;;5012634;28;20041;-60
2022/10/09 12:50:31;;;;;;;3.83;2.50;;;16.70;73.20;;;;;;5015674;28;20467;-62
2022/10/09 12:53:00;;;;;;;12.93;8.13;;;16.70;72.50;;;;;;5018330;28;20037;-62
2022/10/09 12:55:29;;;;;;;26.63;17.27;;;16.70;72.80;;;;;;5019952;28;20030;-61
2022/10/09 12:58:21;;;;;;;14.43;10.32;;;16.70;72.60;;;;;;5017008;28;20108;-62
2022/10/09 13:00:48;;;;;;;4.28;3.10;;;16.70;72.20;;;;;;5016166;28;20033;-62
2022/10/09 13:03:23;;;;;;;3.85;2.05;;;16.80;72.60;;;;;;5018053;28;20042;-62